Time;durP1;ratioP1;P1;durP2;ratioP2;P2;SDS_P1;SDS_P2;PMS_P1;PMS_P2;Temp;Humidity;BMP_temperature;BMP_pressure;BME280_temperature;BME280_humidity;BME280_pressure;Samples;Min_cycle;Max_cycle;Signal;HPM_P1;HPM_P2
2024/01/18 00:03:32;;;;;;;81.57;75.70;;;-1.20;99.90;;;;;;12571082;28;20394;-36
2024/01/18 00:09:35;;;;;;;88.35;82.22;;;-1.30;99.90;;;;;;12567574;28;20497;-35
2024/01/18 00:15:36;;;;;;;84.85;79.10;;;-1.40;99.90;;;;;;12548364;28;20056;-36
2024/01/18 00:21:38;;;;;;;84.75;78.75;;;-1.30;99.90;;;;;;12549908;28;20060;-35
2024/01/18 00:27:40;;;;;;;82.60;76.88;;;-1.20;99.90;;;;;;12548643;28;20043;-35
2024/01/18 00:33:43;;;;;;;84.00;78.15;;;-1.30;99.90;;;;;;12574291;28;20101;-35
2024/01/18 00:39:45;;;;;;;84.60;79.00;;;-1.40;99.90;;;;;;12561960;28;20052;-36
2024/01/18 00:45:46;;;;;;;91.25;85.00;;;-1.40;99.90;;;;;;12556054;28;20500;-35
2024/01/18 00:51:48;;;;;;;92.57;86.28;;;-1.40;99.90;;;;;;12548420;28;20048;-35
2024/01/18 00:57:52;;;;;;;86.03;80.00;;;-1.40;99.90;;;;;;12540250;28;20091;-35
2024/01/18 01:03:54;;;;;;;86.70;80.78;;;-1.30;99.90;;;;;;12557900;28;20060;-35
2024/01/18 01:09:56;;;;;;;83.82;78.05;;;-1.20;99.90;;;;;;12564692;28;20409;-36
2024/01/18 01:15:58;;;;;;;84.97;79.22;;;-1.20;99.90;;;;;;12531225;28;20049;-36
2024/01/18 01:22:00;;;;;;;87.95;81.90;;;-1.20;99.90;;;;;;12545643;28;20551;-35
2024/01/18 01:28:02;;;;;;;95.30;88.28;;;-1.30;99.90;;;;;;12551748;28;20044;-35
2024/01/18 01:34:04;;;;;;;93.65;87.22;;;-1.40;99.90;;;;;;12573272;28;20762;-35
2024/01/18 01:40:07;;;;;;;94.35;87.97;;;-1.40;99.90;;;;;;12548135;28;20049;-35
2024/01/18 01:46:09;;;;;;;97.00;90.20;;;-1.40;99.90;;;;;;12572991;28;20767;-36
2024/01/18 01:52:12;;;;;;;98.18;91.30;;;-1.50;99.90;;;;;;12584860;28;20047;-36
2024/01/18 01:58:17;;;;;;;103.18;95.97;;;-1.50;99.90;;;;;;12573410;28;20420;-35
2024/01/18 02:04:20;;;;;;;107.32;99.53;;;-1.50;99.90;;;;;;12575944;28;20071;-35
2024/01/18 02:10:23;;;;;;;109.80;102.07;;;-1.60;99.90;;;;;;12588345;28;20186;-36
2024/01/18 02:16:25;;;;;;;114.20;106.20;;;-1.60;99.90;;;;;;12576301;28;20045;-35
2024/01/18 02:22:28;;;;;;;113.75;105.55;;;-1.60;99.90;;;;;;12555840;28;20072;-36
2024/01/18 02:28:30;;;;;;;112.37;104.40;;;-1.60;99.90;;;;;;12551050;28;20044;-35
2024/01/18 02:34:38;;;;;;;116.68;108.20;;;-1.60;99.90;;;;;;12559685;28;20183;-35
2024/01/18 02:40:42;;;;;;;115.95;107.97;;;-1.60;99.90;;;;;;12547790;28;20072;-35
2024/01/18 02:46:43;;;;;;;114.88;106.88;;;-1.50;99.90;;;;;;12567348;28;20072;-34
2024/01/18 02:52:45;;;;;;;114.63;106.25;;;-1.40;99.90;;;;;;12578785;28;20075;-35
2024/01/18 02:58:47;;;;;;;111.78;103.50;;;-1.40;99.90;;;;;;12572934;28;20135;-35
2024/01/18 03:04:49;;;;;;;116.13;107.72;;;-1.40;99.90;;;;;;12571654;28;20064;-35
2024/01/18 03:10:51;;;;;;;119.55;110.75;;;-1.40;99.90;;;;;;12597384;28;20421;-36
2024/01/18 03:16:53;;;;;;;122.30;113.40;;;-1.50;99.90;;;;;;12559436;28;20138;-35
2024/01/18 03:22:56;;;;;;;120.30;111.28;;;-1.50;99.90;;;;;;12607873;28;20044;-34
2024/01/18 03:28:58;;;;;;;122.97;113.97;;;-1.50;99.90;;;;;;12560697;28;20076;-35
2024/01/18 03:35:00;;;;;;;116.72;108.32;;;-1.50;99.90;;;;;;12553481;28;20063;-35
2024/01/18 03:41:03;;;;;;;113.70;105.43;;;-1.50;99.90;;;;;;12588413;28;20072;-35
2024/01/18 03:47:04;;;;;;;111.80;103.60;;;-1.50;99.90;;;;;;12572473;28;20049;-35
2024/01/18 03:53:06;;;;;;;113.82;105.57;;;-1.60;99.90;;;;;;12569231;28;20112;-35
2024/01/18 03:59:08;;;;;;;117.63;109.00;;;-1.60;99.90;;;;;;12561287;28;20492;-35
2024/01/18 04:05:10;;;;;;;120.22;111.05;;;-1.70;99.90;;;;;;12552050;28;20052;-35
2024/01/18 04:11:13;;;;;;;119.15;110.25;;;-1.70;99.90;;;;;;12552428;28;20060;-35
2024/01/18 04:17:16;;;;;;;121.40;112.65;;;-1.70;99.90;;;;;;12568936;28;20060;-35
2024/01/18 04:23:19;;;;;;;121.55;112.32;;;-1.80;99.90;;;;;;12556141;28;20412;-35
2024/01/18 04:29:21;;;;;;;119.85;110.90;;;-1.80;99.90;;;;;;12557327;28;20053;-36
2024/01/18 04:35:23;;;;;;;122.18;112.60;;;-1.80;99.90;;;;;;12562232;28;20048;-35
2024/01/18 04:41:25;;;;;;;119.90;110.55;;;-1.80;99.90;;;;;;12553322;28;20053;-35
2024/01/18 04:47:27;;;;;;;116.50;107.97;;;-1.70;99.90;;;;;;12565278;28;20044;-34
2024/01/18 04:53:29;;;;;;;114.88;105.80;;;-1.70;99.90;;;;;;12546480;28;20056;-35
2024/01/18 04:59:31;;;;;;;115.82;106.65;;;-1.70;99.90;;;;;;12563167;28;20551;-35
2024/01/18 05:05:33;;;;;;;108.07;99.28;;;-1.70;99.90;;;;;;12562413;28;20048;-35
2024/01/18 05:11:35;;;;;;;110.07;101.45;;;-1.80;99.90;;;;;;12538019;28;20516;-36
2024/01/18 05:17:40;;;;;;;109.72;101.20;;;-1.90;99.90;;;;;;12561544;28;20048;-35
2024/01/18 05:23:42;;;;;;;111.70;102.35;;;-1.90;99.90;;;;;;12541668;28;20089;-35
2024/01/18 05:29:43;;;;;;;111.68;102.82;;;-1.90;99.90;;;;;;12553293;28;20569;-35
2024/01/18 05:35:45;;;;;;;113.18;104.10;;;-2.00;99.90;;;;;;12559863;28;20480;-34
2024/01/18 05:41:47;;;;;;;113.85;104.88;;;-2.10;99.90;;;;;;12571939;28;20052;-35
2024/01/18 05:47:49;;;;;;;113.28;103.82;;;-2.10;99.90;;;;;;12567046;28;20540;-34
2024/01/18 05:53:51;;;;;;;113.20;103.75;;;-2.20;99.90;;;;;;12545471;28;20045;-35
2024/01/18 05:59:53;;;;;;;112.88;103.68;;;-2.30;99.90;;;;;;12578275;28;20071;-35
2024/01/18 06:05:57;;;;;;;109.88;100.85;;;-2.30;99.90;;;;;;12531105;28;20051;-35
2024/01/18 06:11:59;;;;;;;107.13;98.07;;;-2.30;99.90;;;;;;12576417;28;20125;-35
2024/01/18 06:18:03;;;;;;;109.05;100.35;;;-2.40;99.90;;;;;;12548710;28;20057;-35
2024/01/18 06:24:06;;;;;;;105.10;96.47;;;-2.40;99.90;;;;;;12572015;28;20052;-35
2024/01/18 06:30:10;;;;;;;108.82;100.05;;;-2.40;99.90;;;;;;12566536;28;20094;-35
2024/01/18 06:36:14;;;;;;;105.13;96.63;;;-2.40;99.90;;;;;;12561752;28;20413;-36
2024/01/18 06:42:16;;;;;;;105.53;96.78;;;-2.50;99.90;;;;;;12559697;28;20045;-35
2024/01/18 06:48:19;;;;;;;105.43;96.53;;;-2.50;99.90;;;;;;12564641;28;20040;-35
2024/01/18 06:54:22;;;;;;;104.45;95.97;;;-2.60;99.90;;;;;;12568416;28;20049;-36
2024/01/18 07:00:24;;;;;;;107.78;98.78;;;-2.60;99.90;;;;;;12560261;28;20073;-35
2024/01/18 07:06:26;;;;;;;107.72;98.93;;;-2.70;99.90;;;;;;12548159;28;20508;-36
2024/01/18 07:12:28;;;;;;;107.13;97.97;;;-2.80;99.90;;;;;;12561598;28;20381;-35
2024/01/18 07:18:30;;;;;;;109.43;100.57;;;-2.90;99.90;;;;;;12550028;28;20063;-36
2024/01/18 07:24:32;;;;;;;109.95;101.10;;;-3.00;99.90;;;;;;12570351;28;20041;-35
2024/01/18 07:30:34;;;;;;;110.38;101.15;;;-3.00;99.90;;;;;;12567854;28;20473;-35
2024/01/18 07:36:36;;;;;;;109.40;99.85;;;-3.10;99.90;;;;;;12561003;28;20113;-35
2024/01/18 07:42:37;;;;;;;112.22;103.18;;;-3.20;99.90;;;;;;12570134;28;20048;-35
2024/01/18 07:48:42;;;;;;;109.05;100.60;;;-3.20;99.90;;;;;;12556278;28;20047;-36
2024/01/18 07:54:44;;;;;;;114.82;105.90;;;-3.20;99.90;;;;;;12578524;28;20052;-35
2024/01/18 08:00:46;;;;;;;116.85;107.68;;;-3.20;99.90;;;;;;12587613;28;20488;-35
2024/01/18 08:06:48;;;;;;;112.30;103.45;;;-3.30;99.90;;;;;;12564080;28;20040;-36
2024/01/18 08:12:52;;;;;;;111.15;102.30;;;-3.20;99.90;;;;;;12566987;28;20056;-35
2024/01/18 08:18:55;;;;;;;111.10;102.43;;;-2.90;99.90;;;;;;12543289;28;20057;-35
2024/01/18 08:24:57;;;;;;;109.32;100.50;;;-2.70;99.90;;;;;;12549161;28;20102;-36
2024/01/18 08:30:59;;;;;;;108.82;100.10;;;-2.60;99.90;;;;;;12572741;28;20440;-36
2024/01/18 08:37:03;;;;;;;112.32;103.53;;;-2.50;99.90;;;;;;12557841;28;20463;-36
2024/01/18 08:43:06;;;;;;;112.05;103.43;;;-2.30;99.90;;;;;;12562286;28;20048;-36
2024/01/18 08:49:08;;;;;;;112.60;104.05;;;-2.20;99.90;;;;;;12563969;28;20385;-35
2024/01/18 08:55:10;;;;;;;114.13;105.00;;;-1.90;99.90;;;;;;12542739;28;20102;-36
2024/01/18 09:01:12;;;;;;;114.10;104.95;;;-1.80;99.90;;;;;;12568527;28;20127;-36
2024/01/18 09:07:14;;;;;;;115.82;106.70;;;-1.60;99.90;;;;;;12543866;28;20080;-35
2024/01/18 09:13:16;;;;;;;111.68;103.25;;;-1.30;99.90;;;;;;12562785;28;20457;-35
2024/01/18 09:19:21;;;;;;;109.18;101.60;;;-1.10;99.90;;;;;;12542239;28;20049;-35
2024/01/18 09:25:23;;;;;;;114.45;105.82;;;-1.10;99.90;;;;;;12558309;28;20079;-35
2024/01/18 09:31:24;;;;;;;110.47;102.38;;;-1.10;99.90;;;;;;12574682;28;20123;-35
2024/01/18 09:37:42;;;;;;;107.80;99.80;;;-1.00;99.90;;;;;;12568353;28;20529;-36
2024/01/18 09:43:45;;;;;;;109.30;101.65;;;-0.90;99.90;;;;;;12551684;28;20503;-36
2024/01/18 09:49:49;;;;;;;113.80;105.03;;;-0.80;99.90;;;;;;12554223;28;20068;-36
2024/01/18 09:55:54;;;;;;;109.93;102.13;;;-0.80;99.90;;;;;;12572136;28;20417;-36
2024/01/18 10:01:59;;;;;;;109.93;102.00;;;-0.70;99.90;;;;;;12579269;28;20485;-36
2024/01/18 10:08:01;;;;;;;107.10;99.35;;;-0.30;99.90;;;;;;12576651;28;20049;-36
2024/01/18 10:14:04;;;;;;;105.10;97.32;;;-0.30;99.90;;;;;;12564718;28;20128;-35
2024/01/18 10:20:13;;;;;;;98.63;91.55;;;-0.30;99.90;;;;;;12561536;28;20206;-35
2024/01/18 10:26:17;;;;;;;97.72;91.03;;;-0.10;99.90;;;;;;12588368;28;20059;-35
2024/01/18 10:32:19;;;;;;;96.47;89.95;;;0.20;99.90;;;;;;12570963;28;20091;-35
2024/01/18 10:38:28;;;;;;;93.13;86.85;;;0.30;99.90;;;;;;12568119;28;20083;-36
2024/01/18 10:44:30;;;;;;;100.97;94.35;;;0.60;99.90;;;;;;12565574;28;20048;-35
2024/01/18 10:50:34;;;;;;;98.13;91.43;;;0.70;99.90;;;;;;12549690;28;20049;-35
2024/01/18 10:56:38;;;;;;;99.90;93.25;;;0.80;99.90;;;;;;12557166;28;20056;-36
2024/01/18 11:02:42;;;;;;;;;;;1.00;99.90;;;;;;12580227;28;20178;-36
2024/01/18 11:08:48;;;;;;;97.93;91.50;;;1.10;99.90;;;;;;12554766;28;19928;-35
2024/01/18 11:14:50;;;;;;;102.28;95.38;;;1.20;99.90;;;;;;12553295;28;20048;-35
2024/01/18 11:20:57;;;;;;;102.72;95.93;;;1.30;99.90;;;;;;12571816;28;20187;-34
2024/01/18 11:26:59;;;;;;;100.13;93.53;;;1.50;99.90;;;;;;12559437;28;20045;-35
2024/01/18 11:33:02;;;;;;;104.53;97.40;;;1.70;99.90;;;;;;12576886;28;20056;-36
2024/01/18 11:39:07;;;;;;;99.03;92.70;;;1.70;99.90;;;;;;12561756;28;20052;-35
2024/01/18 11:45:16;;;;;;;92.95;87.07;;;1.80;99.90;;;;;;12577781;28;20455;-35
2024/01/18 11:51:18;;;;;;;96.82;90.30;;;2.00;99.90;;;;;;12547388;28;20057;-35
2024/01/18 11:57:20;;;;;;;98.65;91.72;;;2.10;99.90;;;;;;12571209;28;20094;-36
2024/01/18 12:03:24;;;;;;;94.95;88.90;;;1.90;99.90;;;;;;12566905;28;20052;-36
2024/01/18 12:09:29;;;;;;;95.47;89.13;;;2.20;99.90;;;;;;12552065;28;20432;-36
2024/01/18 12:15:31;;;;;;;86.90;81.30;;;2.20;99.90;;;;;;12569164;28;20172;-36
2024/01/18 12:21:34;;;;;;;82.22;77.22;;;2.30;99.90;;;;;;12557531;28;20561;-35
2024/01/18 12:27:36;;;;;;;78.70;73.85;;;2.30;99.90;;;;;;12542988;28;20044;-34
2024/01/18 12:33:38;;;;;;;80.20;75.20;;;2.50;99.90;;;;;;12551040;28;20420;-36
2024/01/18 12:39:40;;;;;;;89.53;83.78;;;2.50;99.90;;;;;;12564406;28;20076;-35
2024/01/18 12:45:43;;;;;;;92.65;86.18;;;2.20;99.90;;;;;;12550641;28;20048;-36
2024/01/18 12:51:59;;;;;;;93.65;87.55;;;2.00;99.90;;;;;;12551426;28;20393;-36
2024/01/18 12:58:02;;;;;;;94.15;88.00;;;1.90;99.90;;;;;;12553414;28;20522;-35
2024/01/18 13:04:12;;;;;;;98.87;92.43;;;2.00;99.90;;;;;;12553735;28;20176;-36
2024/01/18 13:10:14;;;;;;;90.22;84.80;;;2.00;99.90;;;;;;12543922;28;20052;-36
2024/01/18 13:16:16;;;;;;;88.40;82.72;;;2.10;99.90;;;;;;12556104;28;20409;-36
2024/01/18 13:22:18;;;;;;;90.00;84.53;;;2.20;99.90;;;;;;12557382;28;20048;-35
2024/01/18 13:28:21;;;;;;;98.35;92.25;;;2.10;99.90;;;;;;12562198;28;20536;-35
2024/01/18 13:34:24;;;;;;;94.68;89.03;;;2.00;99.90;;;;;;12576867;28;20091;-34
2024/01/18 13:40:26;;;;;;;87.30;82.22;;;2.00;99.90;;;;;;12544492;28;20657;-35
2024/01/18 13:46:28;;;;;;;89.20;83.80;;;2.10;99.90;;;;;;12556037;28;20052;-35
2024/01/18 13:52:29;;;;;;;87.55;82.25;;;2.10;99.90;;;;;;12574430;28;20040;-36
2024/01/18 13:58:32;;;;;;;89.72;83.93;;;2.30;99.90;;;;;;12555220;28;20105;-36
2024/01/18 14:04:35;;;;;;;102.38;95.88;;;2.20;99.90;;;;;;12551802;28;20099;-35
2024/01/18 14:10:37;;;;;;;97.10;90.88;;;1.90;99.90;;;;;;12577575;28;20083;-34
2024/01/18 14:16:40;;;;;;;94.75;88.75;;;1.90;99.90;;;;;;12549785;28;20071;-36
2024/01/18 14:22:44;;;;;;;92.50;86.80;;;1.90;99.90;;;;;;12580539;28;20098;-35
2024/01/18 14:28:46;;;;;;;92.63;86.63;;;1.80;99.90;;;;;;12578536;28;20051;-35
2024/01/18 14:34:48;;;;;;;89.72;84.32;;;1.80;99.90;;;;;;12580324;28;20056;-36
2024/01/18 14:40:50;;;;;;;96.07;90.13;;;1.80;99.90;;;;;;12582260;28;20037;-36
2024/01/18 14:46:52;;;;;;;94.45;88.32;;;1.70;99.90;;;;;;12571194;28;20416;-35
2024/01/18 14:52:54;;;;;;;89.45;83.97;;;1.80;99.90;;;;;;12561687;28;20080;-35
2024/01/18 14:58:56;;;;;;;90.70;85.00;;;1.80;99.90;;;;;;12572072;28;20048;-35
2024/01/18 15:04:58;;;;;;;93.18;87.50;;;1.70;99.90;;;;;;12561610;28;20041;-35
2024/01/18 15:11:00;;;;;;;92.30;86.55;;;1.60;99.90;;;;;;12556151;28;20058;-35
2024/01/18 15:17:02;;;;;;;92.45;86.55;;;1.60;99.90;;;;;;12569315;28;20064;-36
2024/01/18 15:23:04;;;;;;;100.68;94.28;;;1.70;99.90;;;;;;12578650;28;20068;-35
2024/01/18 15:29:08;;;;;;;100.78;94.18;;;1.60;99.90;;;;;;12577402;28;20128;-36
2024/01/18 15:35:11;;;;;;;100.75;94.15;;;1.50;99.90;;;;;;12575145;28;20071;-35
2024/01/18 15:41:13;;;;;;;96.97;90.70;;;1.50;99.90;;;;;;12560058;28;20049;-36
2024/01/18 15:47:15;;;;;;;99.70;93.20;;;1.40;99.90;;;;;;12569126;28;20051;-35
2024/01/18 15:53:17;;;;;;;97.47;90.97;;;1.20;99.90;;;;;;12567346;28;20076;-35
2024/01/18 15:59:20;;;;;;;99.28;92.50;;;1.10;99.90;;;;;;12546696;28;20076;-34
2024/01/18 16:05:21;;;;;;;94.80;88.43;;;1.10;99.90;;;;;;12563611;28;20041;-35
2024/01/18 16:11:23;;;;;;;87.93;82.20;;;1.20;99.90;;;;;;12564941;28;20049;-36
2024/01/18 16:17:25;;;;;;;94.60;88.20;;;1.30;99.90;;;;;;12585706;28;20080;-35
2024/01/18 16:23:28;;;;;;;97.45;90.95;;;1.20;99.90;;;;;;12579411;28;20048;-35
2024/01/18 16:29:30;;;;;;;94.72;88.43;;;1.20;99.90;;;;;;12567965;28;20068;-35
2024/01/18 16:35:51;;;;;;;89.28;83.45;;;1.20;99.90;;;;;;12571027;28;20052;-35
2024/01/18 16:41:52;;;;;;;93.90;87.47;;;1.20;99.90;;;;;;12554269;28;20585;-35
2024/01/18 16:47:57;;;;;;;93.38;87.38;;;1.20;99.90;;;;;;12566857;28;20047;-35
2024/01/18 16:53:59;;;;;;;93.38;87.47;;;1.10;99.90;;;;;;12561928;28;20074;-35
2024/01/18 17:00:04;;;;;;;92.50;86.72;;;1.10;99.90;;;;;;12578062;28;20091;-35
2024/01/18 17:06:06;;;;;;;94.85;88.93;;;1.10;99.90;;;;;;12553470;28;20045;-35
2024/01/18 17:12:09;;;;;;;94.60;88.70;;;1.10;99.90;;;;;;12560767;28;20056;-35
2024/01/18 17:18:12;;;;;;;97.68;91.40;;;1.00;99.90;;;;;;12556184;28;20072;-35
2024/01/18 17:24:14;;;;;;;103.00;96.15;;;0.90;99.90;;;;;;12563947;28;20049;-34
2024/01/18 17:30:16;;;;;;;105.50;98.70;;;0.70;99.90;;;;;;12570038;28;20044;-35
2024/01/18 17:36:18;;;;;;;107.70;100.50;;;0.50;99.90;;;;;;12574294;28;20056;-35
2024/01/18 17:42:20;;;;;;;109.07;101.97;;;0.30;99.90;;;;;;12555133;28;20056;-35
2024/01/18 17:48:25;;;;;;;109.67;102.37;;;0.20;99.90;;;;;;12546419;28;20057;-35
2024/01/18 17:54:27;;;;;;;114.83;107.03;;;0.00;99.90;;;;;;12549226;28;20447;-35
2024/01/18 18:00:29;;;;;;;110.85;103.45;;;-0.30;99.90;;;;;;12569001;28;20458;-35
2024/01/18 18:06:40;;;;;;;107.55;100.55;;;-0.40;99.90;;;;;;12567762;28;20040;-35
2024/01/18 18:12:42;;;;;;;103.78;97.00;;;-0.50;99.90;;;;;;12569568;28;20067;-35
2024/01/18 18:18:44;;;;;;;106.57;99.80;;;-0.50;99.90;;;;;;12554350;28;20080;-35
2024/01/18 18:24:46;;;;;;;106.07;99.10;;;-0.60;99.90;;;;;;12585868;28;20053;-35
2024/01/18 18:30:48;;;;;;;105.50;98.45;;;-0.80;99.90;;;;;;12589247;28;20086;-34
2024/01/18 18:36:58;;;;;;;102.28;95.57;;;-0.80;99.90;;;;;;12559261;28;20048;-35
2024/01/18 18:43:04;;;;;;;101.57;94.60;;;-1.00;99.90;;;;;;12577790;28;20046;-35
2024/01/18 18:49:05;;;;;;;99.93;93.68;;;-1.00;99.90;;;;;;12551185;28;20485;-36
2024/01/18 18:55:07;;;;;;;95.22;89.25;;;-0.90;99.90;;;;;;12547032;28;20049;-35
2024/01/18 19:01:09;;;;;;;94.50;88.70;;;-0.90;99.90;;;;;;12581137;28;20040;-35
2024/01/18 19:07:11;;;;;;;94.13;88.40;;;-1.00;99.90;;;;;;12537250;28;20094;-35
2024/01/18 19:13:13;;;;;;;92.35;86.55;;;-0.90;99.90;;;;;;12551266;28;20057;-35
2024/01/18 19:19:15;;;;;;;91.95;85.95;;;-0.90;99.90;;;;;;12549793;28;20095;-35
2024/01/18 19:25:17;;;;;;;92.75;86.90;;;-0.90;99.90;;;;;;12575212;28;20045;-35
2024/01/18 19:31:19;;;;;;;92.22;86.45;;;-0.90;99.90;;;;;;12570784;28;20049;-35
2024/01/18 19:37:21;;;;;;;97.00;90.80;;;-1.00;99.90;;;;;;12578418;28;20076;-35
2024/01/18 19:43:23;;;;;;;94.18;87.80;;;-1.00;99.90;;;;;;12566502;28;20496;-35
2024/01/18 19:49:25;;;;;;;98.20;92.00;;;-1.00;99.90;;;;;;12559378;28;20051;-35
2024/01/18 19:55:27;;;;;;;100.78;94.22;;;-1.00;99.90;;;;;;12552777;28;20080;-34
2024/01/18 20:01:29;;;;;;;103.60;97.10;;;-1.00;99.90;;;;;;12561529;28;20481;-35
2024/01/18 20:07:33;;;;;;;101.65;95.30;;;-1.10;99.90;;;;;;12555504;28;20044;-35
2024/01/18 20:13:35;;;;;;;104.10;97.55;;;-1.10;99.90;;;;;;12574804;28;20057;-35
2024/01/18 20:19:37;;;;;;;96.90;90.85;;;-1.10;99.90;;;;;;12559324;28;20065;-35
2024/01/18 20:25:39;;;;;;;100.28;93.82;;;-1.00;99.90;;;;;;12569996;28;20045;-35
2024/01/18 20:31:42;;;;;;;95.97;90.13;;;-1.10;99.90;;;;;;12574895;28;20143;-35
2024/01/18 20:37:45;;;;;;;99.60;93.60;;;-1.10;99.90;;;;;;12560194;28;20044;-35
2024/01/18 20:43:47;;;;;;;98.10;92.22;;;-1.00;99.90;;;;;;12560528;28;20048;-35
2024/01/18 20:49:49;;;;;;;96.45;90.65;;;-0.90;99.90;;;;;;12550948;28;20425;-35
2024/01/18 20:55:51;;;;;;;96.18;90.38;;;-0.90;99.90;;;;;;12568280;28;20398;-36
2024/01/18 21:01:53;;;;;;;100.18;94.20;;;-0.80;99.90;;;;;;12571935;28;20068;-35
2024/01/18 21:07:55;;;;;;;94.25;88.40;;;-0.80;99.90;;;;;;12539421;28;20052;-35
2024/01/18 21:13:57;;;;;;;98.15;92.10;;;-0.90;99.90;;;;;;12549276;28;20056;-35
2024/01/18 21:19:58;;;;;;;98.07;91.72;;;-1.00;99.90;;;;;;12565083;28;20556;-35
2024/01/18 21:26:00;;;;;;;98.88;92.78;;;-1.00;99.90;;;;;;12578031;28;20488;-35
2024/01/18 21:32:03;;;;;;;102.88;96.25;;;-1.10;99.90;;;;;;12550524;28;20076;-35
2024/01/18 21:38:04;;;;;;;101.95;95.38;;;-1.10;99.90;;;;;;12569312;28;20068;-35
2024/01/18 21:44:06;;;;;;;104.57;97.97;;;-1.10;99.90;;;;;;12570236;28;20131;-35
2024/01/18 21:50:09;;;;;;;104.53;97.93;;;-1.10;99.90;;;;;;12559052;28;20302;-35
2024/01/18 21:56:11;;;;;;;103.60;97.13;;;-1.10;99.90;;;;;;12548760;28;20059;-35
2024/01/18 22:02:13;;;;;;;103.72;97.22;;;-1.10;99.90;;;;;;12568082;28;20053;-35
2024/01/18 22:08:16;;;;;;;105.43;98.82;;;-1.20;99.90;;;;;;12531155;28;20456;-35
2024/01/18 22:14:18;;;;;;;112.43;105.32;;;-1.20;99.90;;;;;;12571561;28;20056;-34
2024/01/18 22:20:20;;;;;;;112.07;104.80;;;-1.20;99.90;;;;;;12571240;28;20105;-35
2024/01/18 22:26:22;;;;;;;107.18;99.90;;;-1.10;99.90;;;;;;12578570;28;20093;-35
2024/01/18 22:32:24;;;;;;;111.70;104.50;;;-1.00;99.90;;;;;;12549962;28;20097;-35
2024/01/18 22:38:26;;;;;;;112.50;105.20;;;-1.00;99.90;;;;;;12564167;28;20071;-35
2024/01/18 22:44:28;;;;;;;110.05;103.05;;;-1.00;99.90;;;;;;12565801;28;20087;-35
2024/01/18 22:50:34;;;;;;;111.95;104.97;;;-0.90;99.90;;;;;;12565546;28;20098;-35
2024/01/18 22:56:36;;;;;;;113.28;105.47;;;-1.00;99.90;;;;;;12569894;28;20052;-34
2024/01/18 23:02:37;;;;;;;108.68;101.93;;;-1.00;99.90;;;;;;12573142;28;20056;-35
2024/01/18 23:08:39;;;;;;;108.30;101.03;;;-1.00;99.90;;;;;;12519928;28;20040;-35
2024/01/18 23:14:41;;;;;;;109.95;102.90;;;-1.00;99.90;;;;;;12563867;28;20045;-36
2024/01/18 23:20:43;;;;;;;106.20;99.47;;;-1.10;99.90;;;;;;12571086;28;20186;-35
2024/01/18 23:26:45;;;;;;;104.45;97.50;;;-1.10;99.90;;;;;;12558739;28;20074;-35
2024/01/18 23:32:47;;;;;;;101.75;95.45;;;-1.10;99.90;;;;;;12578418;28;20061;-34
2024/01/18 23:38:50;;;;;;;100.95;94.72;;;-1.00;99.90;;;;;;12575884;28;20453;-35
2024/01/18 23:44:52;;;;;;;97.38;91.38;;;-0.90;99.90;;;;;;12571966;28;20139;-35
2024/01/18 23:50:54;;;;;;;102.95;96.45;;;-0.80;99.90;;;;;;12537701;28;20053;-36
2024/01/18 23:56:56;;;;;;;101.97;95.60;;;-0.80;99.90;;;;;;12565694;28;20056;-35
